Al Rawdah — V7VM8 — position and weather

sailwx.info

Track history (hours):
 
Tides and Currents Weather Stations Pressure Air Temp Water Temp Dewpoint Dewpoint Depression Visibility Wind Speed Wind Dir Waves Ship Positions

Al Rawdah

Last reported at 2016-Feb-08 03:34 UTC. Time now 2016-Feb-08 04:09 UTC.
Position N 43°33' E 009°36'.

Length 307 m; draft 9.7 m.

Type: Ship (hazmat cat A). MMSI: 538004160.

Date/timePositionNaut miles runAvg speedWind from/ knotsBaromVisibWave heightAir tempDewpointWater temp
2016-Feb-08 03:34N 43°33' E 009°36'1 1.1
2016-Feb-08 02:34N 43°32' E 009°35'1 1.0
2016-Feb-08 01:34N 43°31' E 009°35'1 0.9
2016-Feb-08 00:33N 43°30' E 009°35'1 1.0
2016-Feb-07 23:34N 43°29' E 009°34'3 3.1
2016-Feb-07 22:34N 43°33' E 009°34'1212.3
2016-Feb-07 21:33N 43°45' E 009°31'2 2.2
2016-Feb-07 20:33N 43°47' E 009°31'2 2.2
2016-Feb-07 19:33N 43°45' E 009°32'3 2.8
2016-Feb-07 18:33N 43°42' E 009°33'3 3.0
2016-Feb-07 17:33N 43°39' E 009°33'3 3.2
2016-Feb-07 16:34N 43°36' E 009°34'3 3.1
2016-Feb-07 15:34N 43°33' E 009°34'3 3.0
2016-Feb-07 14:33N 43°30' E 009°35'1111.0
2016-Feb-07 13:33N 43°32' E 009°50'1615.7
2016-Feb-07 12:33N 43°29' E 010°11'2 2.2
2016-Feb-07 11:33N 43°29' E 010°14'3 2.7
2016-Feb-07 10:33N 43°26' E 010°16'3 2.8
2016-Feb-07 09:33N 43°24' E 010°18'5 5.0
2016-Feb-07 08:33N 43°26' E 010°12'8 8.1
2016-Feb-07 07:33N 43°30' E 010°01'8 8.3
2016-Feb-07 06:33N 43°32' E 009°51'9 9.4
2016-Feb-07 05:33N 43°30' E 009°38'1010.3
2016-Feb-07 04:33N 43°26' E 009°25'1010.3
2016-Feb-07 03:33N 43°22' E 009°12'1010.0
2016-Feb-07 02:33N 43°18' E 008°59'1010.2
2016-Feb-07 01:33N 43°14' E 008°46'15410.1
2016-Feb-06 10:21N 42°16' E 005°33'4410.9
2016-Feb-06 06:23N 41°60' E 004°38'1111.9
2016-Feb-06 05:28N 41°56' E 004°24'1111.6
2016-Feb-06 04:33N 41°52' E 004°11'1211.7
2016-Feb-06 03:29N 41°48' E 003°56'1311.8
2016-Feb-06 02:24N 41°42' E 003°40'1011.6
2016-Feb-06 01:33N 41°39' E 003°28'1211.7
2016-Feb-06 00:30N 41°34' E 003°12'1511.7
2016-Feb-05 23:15N 41°29' E 002°55'1011.7
2016-Feb-05 22:24N 41°25' E 002°42'2411.7
2016-Feb-05 20:21N 41°16' E 002°12'5 5.0
2016-Feb-05 19:17N 41°21' E 002°10'0 0.0
2016-Feb-05 18:32N 41°21' E 002°10'0 0.0
2016-Feb-05 17:29N 41°21' E 002°10'0 0.0
2016-Feb-05 16:32N 41°21' E 002°10'0 0.0
2016-Feb-05 15:29N 41°21' E 002°10'0 0.0
2016-Feb-05 14:32N 41°21' E 002°10'0 0.0
2016-Feb-05 13:23N 41°21' E 002°10'0 0.0
2016-Feb-05 12:32N 41°21' E 002°10'0 0.1
2016-Feb-05 11:29N 41°21' E 002°10'0 0.0
2016-Feb-05 10:11N 41°21' E 002°10'0 0.0
2016-Feb-05 09:29N 41°21' E 002°10'0 0.0
2016-Feb-05 08:29N 41°21' E 002°10'0 0.0
2016-Feb-05 07:23N 41°21' E 002°10'0 0.0
2016-Feb-05 06:29N 41°21' E 002°10'0 0.0
2016-Feb-05 05:32N 41°21' E 002°10'4 3.5
2016-Feb-05 04:32N 41°17' E 002°11'1111.2
2016-Feb-05 03:33N 41°07' E 002°06'1919.3
2016-Feb-05 02:33N 40°51' E 001°53'2019.8
2016-Feb-05 01:33N 40°34' E 001°39'1919.5
2016-Feb-05 00:33N 40°22' E 001°19'2020.2
2016-Feb-04 23:33N 40°12' E 000°56'6120.4
2016-Feb-04 20:33N 39°33' W 000°05'1212.3
2016-Feb-04 19:33N 39°26' W 000°19'1 0.5
2016-Feb-04 18:31N 39°27' W 000°19'0 0.0
2016-Feb-04 17:31N 39°27' W 000°19'0 0.0
2016-Feb-04 16:31N 39°27' W 000°19'0 0.0
2016-Feb-04 15:31N 39°27' W 000°19'0 0.0
2016-Feb-04 14:31N 39°27' W 000°19'0 0.0
2016-Feb-04 13:31N 39°27' W 000°19'0 0.0
2016-Feb-04 12:31N 39°27' W 000°19'0 0.0
2016-Feb-04 11:31N 39°27' W 000°19'0 0.0
2016-Feb-04 10:31N 39°27' W 000°19'0 0.0
2016-Feb-04 09:31N 39°27' W 000°19'0 0.0
2016-Feb-04 08:31N 39°27' W 000°19'0 0.0
2016-Feb-04 07:31N 39°27' W 000°19'0 0.0
2016-Feb-04 06:31N 39°27' W 000°19'0 0.0
2016-Feb-04 05:31N 39°27' W 000°19'0 0.0
2016-Feb-04 04:31N 39°27' W 000°19'0 0.0
2016-Feb-04 03:31N 39°27' W 000°19'0 0.0
2016-Feb-04 02:31N 39°27' W 000°19'0 0.0
2016-Feb-04 01:31N 39°27' W 000°19'0 0.0
2016-Feb-04 00:31N 39°27' W 000°19'0 0.0
2016-Feb-03 23:31N 39°27' W 000°19'2 2.5
2016-Feb-03 22:33N 39°25' W 000°17'6616.3
2016-Feb-03 18:30N 38°22' E 000°11'2222.7
2016-Feb-03 17:33N 38°04' W 000°04'2322.9
2016-Feb-03 16:33N 37°45' W 000°20'2221.9
2016-Feb-03 15:33N 37°28' W 000°37'2222.0
2016-Feb-03 14:33N 37°14' W 000°58'20616.6
2016-Feb-03 02:08N 36°02' W 004°58'1119.4
2016-Feb-03 01:33N 36°01' W 005°12'1312.8
2016-Feb-03 00:33N 36°08' W 005°25'0 0.5
2016-Feb-02 23:33N 36°08' W 005°25'0 0.0
2016-Feb-02 22:30N 36°08' W 005°25'0 0.0
2016-Feb-02 21:33N 36°08' W 005°25'0 0.0
2016-Feb-02 15:09N 36°08' W 005°25'0 0.0
2016-Feb-02 14:33N 36°08' W 005°25'0 0.0
2016-Feb-02 13:21N 36°08' W 005°25'0 0.0
2016-Feb-02 12:30N 36°08' W 005°25'2 1.7
2016-Feb-02 11:33N 36°07' W 005°23'7 7.5
2016-Feb-02 10:33N 35°60' W 005°24'9710.7
2016-Feb-02 01:30N 35°44' W 007°22'1010.6
2016-Feb-02 00:33N 35°42' W 007°34'1211.0
2016-Feb-01 23:25N 35°40' W 007°49'184 8.4
2016-Feb-01 01:28N 35°08' W 011°32'22 9.6
2016-Jan-31 23:07N 35°06' W 011°59'8 9.5
2016-Jan-31 22:18N 35°05' W 012°09'  
2016-Jan-29 15:29N 33°39' W 022°60'3310.0
2016-Jan-29 12:12N 33°29' W 023°38'6 9.9
2016-Jan-29 11:33N 33°27' W 023°45'10 9.9
2016-Jan-29 10:33N 33°26' W 023°57'1110.2
2016-Jan-29 09:30N 33°25' W 024°10'1510.4
2016-Jan-29 08:04N 33°22' W 024°27'510.6
2016-Jan-29 07:34N 33°21' W 024°34'2210.7
2016-Jan-29 05:31N 33°18' W 024°59'1510.1
2016-Jan-29 04:04N 33°15' W 025°16'  
Track history (hours):
 
Tides and Currents Weather Stations Pressure Air Temp Water Temp Dewpoint Dewpoint Depression Visibility Wind Speed Wind Dir Waves Ship Positions

Al Rawdah

Last reported at 2016-Feb-08 03:34 UTC. Time now 2016-Feb-08 04:09 UTC.
Position N 43°33' E 009°36'.

Length 307 m; draft 9.7 m.

Type: Ship (hazmat cat A). MMSI: 538004160.

Date/timePositionNaut miles runAvg speedWind from/ knotsBaromVisibWave heightAir tempDewpointWater temp
2016-Feb-08 03:34N 43°33' E 009°36'1 1.1
2016-Feb-08 02:34N 43°32' E 009°35'1 1.0
2016-Feb-08 01:34N 43°31' E 009°35'1 0.9
2016-Feb-08 00:33N 43°30' E 009°35'1 1.0
2016-Feb-07 23:34N 43°29' E 009°34'3 3.1
2016-Feb-07 22:34N 43°33' E 009°34'1212.3
2016-Feb-07 21:33N 43°45' E 009°31'2 2.2
2016-Feb-07 20:33N 43°47' E 009°31'2 2.2
2016-Feb-07 19:33N 43°45' E 009°32'3 2.8
2016-Feb-07 18:33N 43°42' E 009°33'3 3.0
2016-Feb-07 17:33N 43°39' E 009°33'3 3.2
2016-Feb-07 16:34N 43°36' E 009°34'3 3.1
2016-Feb-07 15:34N 43°33' E 009°34'3 3.0
2016-Feb-07 14:33N 43°30' E 009°35'1111.0
2016-Feb-07 13:33N 43°32' E 009°50'1615.7
2016-Feb-07 12:33N 43°29' E 010°11'2 2.2
2016-Feb-07 11:33N 43°29' E 010°14'3 2.7
2016-Feb-07 10:33N 43°26' E 010°16'3 2.8
2016-Feb-07 09:33N 43°24' E 010°18'5 5.0
2016-Feb-07 08:33N 43°26' E 010°12'8 8.1
2016-Feb-07 07:33N 43°30' E 010°01'8 8.3
2016-Feb-07 06:33N 43°32' E 009°51'9 9.4
2016-Feb-07 05:33N 43°30' E 009°38'1010.3
2016-Feb-07 04:33N 43°26' E 009°25'1010.3
2016-Feb-07 03:33N 43°22' E 009°12'1010.0
2016-Feb-07 02:33N 43°18' E 008°59'1010.2
2016-Feb-07 01:33N 43°14' E 008°46'15410.1
2016-Feb-06 10:21N 42°16' E 005°33'4410.9
2016-Feb-06 06:23N 41°60' E 004°38'1111.9
2016-Feb-06 05:28N 41°56' E 004°24'1111.6
2016-Feb-06 04:33N 41°52' E 004°11'1211.7
2016-Feb-06 03:29N 41°48' E 003°56'1311.8
2016-Feb-06 02:24N 41°42' E 003°40'1011.6
2016-Feb-06 01:33N 41°39' E 003°28'1211.7
2016-Feb-06 00:30N 41°34' E 003°12'1511.7
2016-Feb-05 23:15N 41°29' E 002°55'1011.7
2016-Feb-05 22:24N 41°25' E 002°42'2411.7
2016-Feb-05 20:21N 41°16' E 002°12'5 5.0
2016-Feb-05 19:17N 41°21' E 002°10'0 0.0
2016-Feb-05 18:32N 41°21' E 002°10'0 0.0
2016-Feb-05 17:29N 41°21' E 002°10'0 0.0
2016-Feb-05 16:32N 41°21' E 002°10'0 0.0
2016-Feb-05 15:29N 41°21' E 002°10'0 0.0
2016-Feb-05 14:32N 41°21' E 002°10'0 0.0
2016-Feb-05 13:23N 41°21' E 002°10'0 0.0
2016-Feb-05 12:32N 41°21' E 002°10'0 0.1
2016-Feb-05 11:29N 41°21' E 002°10'0 0.0
2016-Feb-05 10:11N 41°21' E 002°10'0 0.0
2016-Feb-05 09:29N 41°21' E 002°10'0 0.0
2016-Feb-05 08:29N 41°21' E 002°10'0 0.0
2016-Feb-05 07:23N 41°21' E 002°10'0 0.0
2016-Feb-05 06:29N 41°21' E 002°10'0 0.0
2016-Feb-05 05:32N 41°21' E 002°10'4 3.5
2016-Feb-05 04:32N 41°17' E 002°11'1111.2
2016-Feb-05 03:33N 41°07' E 002°06'1919.3
2016-Feb-05 02:33N 40°51' E 001°53'2019.8
2016-Feb-05 01:33N 40°34' E 001°39'1919.5
2016-Feb-05 00:33N 40°22' E 001°19'2020.2
2016-Feb-04 23:33N 40°12' E 000°56'6120.4
2016-Feb-04 20:33N 39°33' W 000°05'1212.3
2016-Feb-04 19:33N 39°26' W 000°19'1 0.5
2016-Feb-04 18:31N 39°27' W 000°19'0 0.0
2016-Feb-04 17:31N 39°27' W 000°19'0 0.0
2016-Feb-04 16:31N 39°27' W 000°19'0 0.0
2016-Feb-04 15:31N 39°27' W 000°19'0 0.0
2016-Feb-04 14:31N 39°27' W 000°19'0 0.0
2016-Feb-04 13:31N 39°27' W 000°19'0 0.0
2016-Feb-04 12:31N 39°27' W 000°19'0 0.0
2016-Feb-04 11:31N 39°27' W 000°19'0 0.0
2016-Feb-04 10:31N 39°27' W 000°19'0 0.0
2016-Feb-04 09:31N 39°27' W 000°19'0 0.0
2016-Feb-04 08:31N 39°27' W 000°19'0 0.0
2016-Feb-04 07:31N 39°27' W 000°19'0 0.0
2016-Feb-04 06:31N 39°27' W 000°19'0 0.0
2016-Feb-04 05:31N 39°27' W 000°19'0 0.0
2016-Feb-04 04:31N 39°27' W 000°19'0 0.0
2016-Feb-04 03:31N 39°27' W 000°19'0 0.0
2016-Feb-04 02:31N 39°27' W 000°19'0 0.0
2016-Feb-04 01:31N 39°27' W 000°19'0 0.0
2016-Feb-04 00:31N 39°27' W 000°19'0 0.0
2016-Feb-03 23:31N 39°27' W 000°19'2 2.5
2016-Feb-03 22:33N 39°25' W 000°17'6616.3
2016-Feb-03 18:30N 38°22' E 000°11'2222.7
2016-Feb-03 17:33N 38°04' W 000°04'2322.9
2016-Feb-03 16:33N 37°45' W 000°20'2221.9
2016-Feb-03 15:33N 37°28' W 000°37'2222.0
2016-Feb-03 14:33N 37°14' W 000°58'20616.6
2016-Feb-03 02:08N 36°02' W 004°58'1119.4
2016-Feb-03 01:33N 36°01' W 005°12'1312.8
2016-Feb-03 00:33N 36°08' W 005°25'0 0.5
2016-Feb-02 23:33N 36°08' W 005°25'0 0.0
2016-Feb-02 22:30N 36°08' W 005°25'0 0.0
2016-Feb-02 21:33N 36°08' W 005°25'0 0.0
2016-Feb-02 15:09N 36°08' W 005°25'0 0.0
2016-Feb-02 14:33N 36°08' W 005°25'0 0.0
2016-Feb-02 13:21N 36°08' W 005°25'0 0.0
2016-Feb-02 12:30N 36°08' W 005°25'2 1.7
2016-Feb-02 11:33N 36°07' W 005°23'7 7.5
2016-Feb-02 10:33N 35°60' W 005°24'9710.7
2016-Feb-02 01:30N 35°44' W 007°22'1010.6
2016-Feb-02 00:33N 35°42' W 007°34'1211.0
2016-Feb-01 23:25N 35°40' W 007°49'184 8.4
2016-Feb-01 01:28N 35°08' W 011°32'22 9.6
2016-Jan-31 23:07N 35°06' W 011°59'8 9.5
2016-Jan-31 22:18N 35°05' W 012°09'  
2016-Jan-29 15:29N 33°39' W 022°60'3310.0
2016-Jan-29 12:12N 33°29' W 023°38'6 9.9
2016-Jan-29 11:33N 33°27' W 023°45'10 9.9
2016-Jan-29 10:33N 33°26' W 023°57'1110.2
2016-Jan-29 09:30N 33°25' W 024°10'1510.4
2016-Jan-29 08:04N 33°22' W 024°27'510.6
2016-Jan-29 07:34N 33°21' W 024°34'2210.7
2016-Jan-29 05:31N 33°18' W 024°59'1510.1
2016-Jan-29 04:04N 33°15' W 025°16'  

Dump ship's entire track history